Time;durP1;ratioP1;P1;durP2;ratioP2;P2;SDS_P1;SDS_P2;PMS_P1;PMS_P2;Temp;Humidity;BMP_temperature;BMP_pressure;BME280_temperature;BME280_humidity;BME280_pressure;Samples;Min_cycle;Max_cycle;Signal;HPM_P1;HPM_P2
2022/03/30 00:00:16;;;;;;;6.78;3.83;;;12.40;48.50;;;;;;1891402;75;21077;-47
2022/03/30 00:02:46;;;;;;;8.53;3.65;;;12.40;48.20;;;;;;1891673;76;21065;-49
2022/03/30 00:05:15;;;;;;;8.10;4.35;;;12.40;48.30;;;;;;1891475;76;21085;-50
2022/03/30 00:07:45;;;;;;;7.87;4.08;;;12.40;48.20;;;;;;1891458;76;21054;-48
2022/03/30 00:10:14;;;;;;;7.05;3.65;;;12.40;48.40;;;;;;1891374;76;21073;-47
2022/03/30 00:12:44;;;;;;;5.90;3.87;;;12.40;48.50;;;;;;1891588;75;21457;-48
2022/03/30 00:15:13;;;;;;;7.78;4.00;;;12.40;48.50;;;;;;1891515;76;21084;-48
2022/03/30 00:17:42;;;;;;;8.15;4.12;;;12.40;48.60;;;;;;1891788;76;21124;-48
2022/03/30 00:20:12;;;;;;;5.83;3.80;;;12.40;49.10;;;;;;1891524;76;21026;-48
2022/03/30 00:22:41;;;;;;;8.85;4.30;;;12.40;48.70;;;;;;1891547;76;21030;-48
2022/03/30 00:25:12;;;;;;;8.13;3.90;;;12.40;48.80;;;;;;1891531;75;21026;-48
2022/03/30 00:27:47;;;;;;;7.35;4.12;;;12.40;49.00;;;;;;1891605;76;21034;-47
2022/03/30 00:30:15;;;;;;;6.62;3.92;;;12.40;49.10;;;;;;1890692;75;21092;-47
2022/03/30 00:32:44;;;;;;;9.60;4.70;;;12.40;49.20;;;;;;1891645;76;21089;-48
2022/03/30 00:35:14;;;;;;;5.35;4.17;;;12.30;49.00;;;;;;1891538;76;21031;-48
2022/03/30 00:37:43;;;;;;;5.45;3.90;;;12.30;49.20;;;;;;1891610;76;21030;-47
2022/03/30 00:40:18;;;;;;;7.35;4.17;;;12.30;49.20;;;;;;1889673;75;21031;-46
2022/03/30 00:42:47;;;;;;;7.25;3.75;;;12.30;49.40;;;;;;1872914;76;21007;-48
2022/03/30 00:45:18;;;;;;;11.15;4.50;;;12.30;49.40;;;;;;1872867;76;21024;-47
2022/03/30 00:47:47;;;;;;;9.48;4.10;;;12.30;49.50;;;;;;1872811;77;21027;-47
2022/03/30 00:50:18;;;;;;;6.95;4.03;;;12.40;49.80;;;;;;1872889;77;21089;-47
2022/03/30 00:52:56;;;;;;;8.83;4.17;;;12.30;49.60;;;;;;1872806;77;21007;-48
2022/03/30 00:55:21;;;;;;;6.80;4.45;;;12.40;50.00;;;;;;1871870;76;21110;-48
2022/03/30 00:57:52;;;;;;;8.30;4.45;;;12.30;49.80;;;;;;1872949;77;21066;-47
2022/03/30 01:00:21;;;;;;;9.70;4.45;;;12.30;49.90;;;;;;1872852;75;21023;-47
2022/03/30 01:02:52;;;;;;;10.18;3.50;;;12.30;49.80;;;;;;1872915;76;21027;-47
2022/03/30 01:05:21;;;;;;;8.68;4.12;;;12.30;49.80;;;;;;1872756;76;21027;-48
2022/03/30 01:07:51;;;;;;;7.53;4.70;;;12.30;50.00;;;;;;1872877;77;21031;-49
2022/03/30 01:10:20;;;;;;;8.68;4.97;;;12.30;50.20;;;;;;1872760;77;21007;-47
2022/03/30 01:12:52;;;;;;;6.70;4.15;;;12.30;50.20;;;;;;1872903;77;21109;-47
2022/03/30 01:15:21;;;;;;;8.68;4.42;;;12.30;50.20;;;;;;1872765;77;21027;-49
2022/03/30 01:17:51;;;;;;;6.70;4.45;;;12.30;50.30;;;;;;1872877;77;21027;-47
2022/03/30 01:20:22;;;;;;;6.62;3.95;;;12.30;50.90;;;;;;1872748;75;21030;-47
2022/03/30 01:22:52;;;;;;;9.33;4.72;;;12.30;50.40;;;;;;1872851;76;21097;-47
2022/03/30 01:25:21;;;;;;;7.90;4.55;;;12.30;50.30;;;;;;1872737;77;21023;-47
2022/03/30 01:27:50;;;;;;;7.22;4.60;;;12.30;50.20;;;;;;1872854;76;21501;-47
2022/03/30 01:33:07;;;;;;;7.67;4.47;;;12.30;50.20;;;;;;1872751;76;21078;-48
2022/03/30 01:35:37;;;;;;;5.15;3.85;;;12.30;50.20;;;;;;1872834;77;21081;-48
2022/03/30 01:38:07;;;;;;;10.90;6.10;;;12.30;50.30;;;;;;1872848;76;21072;-48
2022/03/30 01:40:37;;;;;;;7.87;4.50;;;12.40;50.30;;;;;;1872703;76;21089;-47
2022/03/30 01:43:07;;;;;;;7.08;4.92;;;12.40;50.30;;;;;;1872843;77;21058;-47
2022/03/30 01:45:36;;;;;;;6.85;4.50;;;12.40;50.30;;;;;;1872806;76;21542;-46
2022/03/30 01:48:06;;;;;;;7.67;4.53;;;12.40;50.10;;;;;;1872782;76;21104;-47
2022/03/30 01:50:36;;;;;;;7.42;4.83;;;12.40;50.10;;;;;;1872751;77;21027;-48
2022/03/30 01:53:06;;;;;;;8.40;3.83;;;12.50;50.20;;;;;;1872754;77;21140;-48
2022/03/30 01:55:35;;;;;;;10.68;4.20;;;12.40;50.20;;;;;;1872844;77;21097;-48
2022/03/30 01:58:05;;;;;;;6.45;4.22;;;12.40;50.20;;;;;;1872750;75;21027;-47
2022/03/30 02:00:34;;;;;;;7.78;4.33;;;12.40;50.30;;;;;;1872875;76;21026;-47
2022/03/30 02:03:04;;;;;;;7.62;4.53;;;12.40;50.30;;;;;;1872818;77;21109;-47
2022/03/30 02:05:33;;;;;;;7.35;4.70;;;12.40;50.30;;;;;;1872716;75;21082;-47
2022/03/30 02:08:03;;;;;;;7.97;4.90;;;12.40;50.40;;;;;;1872898;77;21027;-46
2022/03/30 02:10:32;;;;;;;9.28;5.05;;;12.40;50.40;;;;;;1872708;76;21097;-47
2022/03/30 02:13:02;;;;;;;7.90;4.60;;;12.40;50.40;;;;;;1872896;77;21089;-50
2022/03/30 02:15:31;;;;;;;8.25;4.75;;;12.40;50.40;;;;;;1872713;75;21043;-48
2022/03/30 02:18:01;;;;;;;6.53;4.62;;;12.40;50.50;;;;;;1872872;77;21029;-47
2022/03/30 02:20:30;;;;;;;11.97;4.12;;;12.40;50.40;;;;;;1872825;75;21023;-47
2022/03/30 02:22:59;;;;;;;8.05;4.50;;;12.40;50.50;;;;;;1872807;76;21437;-48
2022/03/30 02:25:28;;;;;;;8.63;4.47;;;12.40;50.50;;;;;;1872807;76;21031;-48
2022/03/30 02:27:58;;;;;;;9.23;4.60;;;12.40;50.70;;;;;;1872757;77;21027;-47
2022/03/30 02:30:27;;;;;;;8.38;4.60;;;12.40;50.80;;;;;;1872729;77;21082;-46
2022/03/30 02:32:57;;;;;;;7.67;4.67;;;12.40;50.90;;;;;;1872825;77;21410;-47
2022/03/30 02:35:27;;;;;;;7.17;4.47;;;12.30;50.90;;;;;;1872854;77;21140;-47
2022/03/30 02:37:58;;;;;;;6.62;4.67;;;12.30;51.10;;;;;;1872850;77;21116;-49
2022/03/30 02:40:27;;;;;;;7.00;4.30;;;12.30;51.20;;;;;;1872907;76;21087;-47
2022/03/30 02:42:56;;;;;;;12.30;4.45;;;12.20;51.20;;;;;;1886169;76;21081;-47
2022/03/30 02:45:26;;;;;;;8.13;4.10;;;12.20;51.30;;;;;;1891434;76;21023;-47
2022/03/30 02:50:44;;;;;;;9.10;5.25;;;12.10;51.50;;;;;;1891529;76;21104;-47
2022/03/30 02:53:13;;;;;;;7.30;4.37;;;12.10;51.50;;;;;;1891535;76;21084;-49
2022/03/30 02:55:43;;;;;;;8.58;4.35;;;12.10;51.60;;;;;;1891448;76;21038;-48
2022/03/30 02:58:12;;;;;;;9.48;4.50;;;12.10;51.60;;;;;;1891440;75;21080;-47
2022/03/30 03:00:42;;;;;;;9.30;5.17;;;12.10;51.80;;;;;;1891541;75;21092;-48
2022/03/30 03:03:12;;;;;;;7.65;4.97;;;12.10;51.90;;;;;;1891490;76;21027;-47
2022/03/30 03:05:41;;;;;;;6.65;4.33;;;12.10;51.90;;;;;;1891407;76;21026;-47
2022/03/30 03:08:12;;;;;;;9.98;4.72;;;12.10;51.90;;;;;;1891578;76;21030;-47
2022/03/30 03:10:46;;;;;;;8.43;4.83;;;12.10;51.80;;;;;;1891489;76;21088;-47
2022/03/30 03:13:16;;;;;;;7.17;4.70;;;12.10;51.90;;;;;;1891864;76;21100;-47
2022/03/30 03:15:47;;;;;;;9.70;5.10;;;12.10;51.90;;;;;;1891532;76;21171;-47
2022/03/30 03:18:16;;;;;;;11.05;4.47;;;12.00;52.10;;;;;;1891508;76;21077;-48
2022/03/30 03:20:47;;;;;;;8.30;4.80;;;12.00;52.20;;;;;;1891465;75;21026;-47
2022/03/30 03:23:18;;;;;;;12.25;4.40;;;12.00;52.20;;;;;;1891518;76;21101;-48
2022/03/30 03:25:47;;;;;;;8.08;5.30;;;12.00;52.30;;;;;;1891507;75;21096;-47
2022/03/30 03:28:16;;;;;;;15.30;6.28;;;12.00;52.30;;;;;;1891467;75;21065;-47
2022/03/30 03:30:46;;;;;;;31.45;14.07;;;12.00;52.50;;;;;;1891385;75;21014;-47
2022/03/30 03:33:15;;;;;;;70.78;31.42;;;12.00;52.50;;;;;;1891489;76;21034;-47
2022/03/30 03:35:44;;;;;;;36.33;14.25;;;12.00;52.60;;;;;;1891451;76;21152;-47
2022/03/30 03:38:13;;;;;;;16.48;8.18;;;12.00;52.70;;;;;;1891637;76;21104;-48
2022/03/30 03:40:43;;;;;;;29.90;11.33;;;12.00;52.70;;;;;;1891505;76;21022;-47
2022/03/30 03:43:12;;;;;;;16.90;9.88;;;12.00;52.80;;;;;;1891415;76;21034;-47
2022/03/30 03:45:41;;;;;;;9.83;6.22;;;12.00;52.90;;;;;;1891405;76;21076;-47
2022/03/30 03:48:11;;;;;;;10.88;5.58;;;12.00;53.00;;;;;;1891421;76;21026;-47
2022/03/30 03:50:40;;;;;;;10.70;5.35;;;12.00;53.00;;;;;;1891486;75;21093;-48
2022/03/30 03:53:10;;;;;;;13.50;4.83;;;12.00;53.20;;;;;;1891727;76;21041;-47
2022/03/30 03:55:39;;;;;;;11.53;5.50;;;11.90;53.30;;;;;;1891630;76;21050;-47
2022/03/30 03:58:09;;;;;;;13.80;5.60;;;11.90;53.40;;;;;;1891657;76;21026;-47
2022/03/30 04:00:38;;;;;;;14.40;5.12;;;11.90;53.60;;;;;;1891488;76;21003;-47
2022/03/30 04:03:07;;;;;;;12.03;5.25;;;12.00;53.60;;;;;;1891502;76;21082;-47
2022/03/30 04:05:37;;;;;;;13.03;5.40;;;11.90;53.50;;;;;;1891491;75;21046;-47
2022/03/30 04:08:07;;;;;;;7.97;5.47;;;11.90;53.70;;;;;;1891529;76;21022;-47
2022/03/30 04:10:37;;;;;;;17.55;5.67;;;11.90;53.70;;;;;;1891496;75;21539;-46
2022/03/30 04:13:07;;;;;;;8.48;5.58;;;11.90;54.20;;;;;;1891531;76;21127;-48
2022/03/30 04:15:41;;;;;;;14.95;5.45;;;11.90;53.80;;;;;;1891565;76;21078;-47
2022/03/30 04:18:08;;;;;;;12.05;5.90;;;11.90;54.00;;;;;;1890676;75;21081;-47
2022/03/30 04:20:37;;;;;;;29.98;6.83;;;11.90;53.90;;;;;;1891524;76;21136;-48
2022/03/30 04:23:07;;;;;;;14.98;5.83;;;11.90;54.00;;;;;;1891502;75;21324;-47
2022/03/30 04:25:36;;;;;;;10.23;5.35;;;11.90;54.10;;;;;;1891571;76;21022;-48
2022/03/30 04:28:06;;;;;;;10.35;5.58;;;12.00;54.20;;;;;;1891542;76;21484;-49
2022/03/30 04:30:35;;;;;;;15.40;5.60;;;12.00;54.70;;;;;;1891557;76;21057;-47
2022/03/30 04:33:04;;;;;;;7.40;4.58;;;12.00;54.00;;;;;;1891498;76;21015;-47
2022/03/30 04:35:33;;;;;;;13.55;5.47;;;12.10;54.00;;;;;;1891370;75;21100;-48
2022/03/30 04:38:03;;;;;;;12.70;7.20;;;12.10;53.90;;;;;;1891473;75;21034;-50
2022/03/30 04:40:32;;;;;;;11.53;5.65;;;12.20;53.80;;;;;;1891465;76;21038;-47
2022/03/30 04:43:02;;;;;;;13.22;5.45;;;12.20;53.70;;;;;;1886653;76;21039;-47
2022/03/30 04:45:31;;;;;;;10.68;5.45;;;12.20;53.70;;;;;;1872713;76;21023;-47
2022/03/30 04:48:00;;;;;;;9.93;5.05;;;12.30;53.70;;;;;;1872839;75;21023;-48
2022/03/30 04:50:29;;;;;;;8.38;5.08;;;12.30;53.70;;;;;;1872864;77;21031;-47
2022/03/30 04:52:59;;;;;;;11.08;4.97;;;12.30;53.60;;;;;;1872862;76;21097;-47
2022/03/30 04:55:28;;;;;;;9.60;4.67;;;12.40;53.60;;;;;;1872752;77;21031;-46
2022/03/30 04:57:57;;;;;;;10.70;5.28;;;12.40;53.60;;;;;;1872894;77;21160;-50
2022/03/30 05:00:27;;;;;;;8.60;5.30;;;12.40;53.40;;;;;;1872855;76;21532;-48
2022/03/30 05:02:56;;;;;;;10.60;5.67;;;12.50;53.40;;;;;;1872707;76;21007;-47
2022/03/30 05:05:25;;;;;;;13.80;6.80;;;12.50;53.50;;;;;;1872736;75;21109;-47
2022/03/30 05:07:56;;;;;;;17.92;7.15;;;12.50;53.40;;;;;;1872850;77;21027;-48
2022/03/30 05:10:25;;;;;;;10.98;5.87;;;12.60;53.40;;;;;;1872786;77;21027;-48
2022/03/30 05:12:54;;;;;;;9.58;5.53;;;12.70;53.40;;;;;;1872763;75;21007;-49
2022/03/30 05:15:23;;;;;;;9.78;5.45;;;12.70;53.30;;;;;;1872707;77;21089;-51
2022/03/30 05:17:52;;;;;;;10.00;5.37;;;12.70;53.20;;;;;;1872926;76;21155;-51
2022/03/30 05:20:22;;;;;;;13.20;5.08;;;12.80;53.20;;;;;;1872748;77;21003;-49
2022/03/30 05:22:52;;;;;;;10.68;4.97;;;12.80;53.00;;;;;;1872750;77;21098;-48
2022/03/30 05:25:21;;;;;;;9.63;5.22;;;12.90;52.90;;;;;;1872786;76;21081;-48
2022/03/30 05:27:50;;;;;;;6.55;5.00;;;12.90;52.80;;;;;;1872764;77;21105;-49
2022/03/30 05:30:19;;;;;;;10.58;5.45;;;12.90;52.60;;;;;;1872731;76;21070;-51
2022/03/30 05:32:49;;;;;;;9.00;4.83;;;13.00;52.60;;;;;;1872891;77;21494;-48
2022/03/30 05:35:18;;;;;;;12.45;5.15;;;13.00;52.60;;;;;;1872911;77;21139;-49
2022/03/30 05:37:48;;;;;;;13.38;5.22;;;13.00;52.50;;;;;;1872883;77;21054;-47
2022/03/30 05:40:18;;;;;;;8.08;4.70;;;13.10;52.50;;;;;;1872917;75;21079;-48
2022/03/30 05:42:48;;;;;;;11.73;4.65;;;13.10;52.40;;;;;;1872943;77;21098;-48
2022/03/30 05:45:17;;;;;;;9.50;5.00;;;13.10;52.40;;;;;;1890266;75;21223;-49
2022/03/30 05:47:46;;;;;;;30.02;6.30;;;13.10;52.30;;;;;;1891462;76;21026;-49
2022/03/30 05:50:16;;;;;;;15.40;9.23;;;13.20;52.20;;;;;;1891473;76;21081;-49
2022/03/30 05:52:46;;;;;;;11.90;5.87;;;13.20;52.10;;;;;;1891440;76;21026;-51
2022/03/30 05:55:15;;;;;;;8.85;5.22;;;13.20;52.10;;;;;;1891547;76;21002;-48
2022/03/30 05:57:45;;;;;;;13.38;5.20;;;13.20;52.00;;;;;;1891442;76;21088;-48
2022/03/30 06:00:14;;;;;;;11.63;4.50;;;13.30;52.00;;;;;;1891541;76;21006;-52
2022/03/30 06:02:44;;;;;;;15.53;5.28;;;13.30;51.90;;;;;;1891462;76;21026;-48
2022/03/30 06:05:13;;;;;;;10.63;4.80;;;13.30;52.00;;;;;;1891544;76;21567;-51
2022/03/30 06:07:44;;;;;;;13.75;5.42;;;13.30;52.00;;;;;;1891434;75;21043;-51
2022/03/30 06:10:13;;;;;;;14.80;6.40;;;13.40;52.00;;;;;;1891355;76;21033;-50
2022/03/30 06:12:43;;;;;;;8.30;4.87;;;13.40;52.00;;;;;;1891464;76;21022;-50
2022/03/30 06:15:12;;;;;;;10.25;5.45;;;13.40;51.90;;;;;;1891553;76;21113;-48
2022/03/30 06:17:42;;;;;;;7.58;4.28;;;13.50;52.00;;;;;;1891561;76;21030;-50
2022/03/30 06:20:11;;;;;;;12.90;5.12;;;13.50;51.90;;;;;;1891460;76;21077;-52
2022/03/30 06:22:44;;;;;;;18.52;5.97;;;13.60;52.00;;;;;;1891448;76;21092;-50
2022/03/30 06:25:14;;;;;;;11.15;5.05;;;13.60;51.90;;;;;;1891487;76;21030;-48
2022/03/30 06:27:43;;;;;;;9.03;5.37;;;13.70;52.00;;;;;;1891479;75;21096;-50
2022/03/30 06:30:13;;;;;;;11.35;5.65;;;13.70;52.00;;;;;;1891486;76;21026;-47
2022/03/30 06:32:42;;;;;;;10.72;5.67;;;13.70;52.00;;;;;;1891429;75;21026;-50
2022/03/30 06:35:12;;;;;;;7.55;4.85;;;13.80;52.00;;;;;;1891376;76;21026;-46
2022/03/30 06:37:41;;;;;;;9.10;5.03;;;13.90;52.00;;;;;;1891532;76;21120;-50
2022/03/30 06:40:12;;;;;;;10.98;5.30;;;13.90;51.90;;;;;;1891387;76;21096;-48
2022/03/30 06:42:41;;;;;;;10.48;4.55;;;14.00;52.00;;;;;;1891414;75;21030;-50
2022/03/30 06:45:11;;;;;;;9.60;4.42;;;14.10;51.80;;;;;;1879396;76;21070;-48
2022/03/30 06:47:41;;;;;;;18.70;5.72;;;14.10;51.60;;;;;;1872746;75;21477;-50
2022/03/30 06:50:12;;;;;;;7.12;5.25;;;14.20;52.00;;;;;;1872771;77;21003;-47
2022/03/30 06:52:42;;;;;;;9.65;4.80;;;14.20;51.40;;;;;;1872814;77;21097;-49
2022/03/30 06:55:12;;;;;;;10.72;4.33;;;14.30;51.40;;;;;;1872718;77;21027;-51
2022/03/30 06:57:42;;;;;;;9.15;4.60;;;14.30;51.20;;;;;;1872707;76;21129;-47
2022/03/30 07:00:12;;;;;;;8.75;5.62;;;14.40;51.50;;;;;;1872739;77;21031;-47
2022/03/30 07:02:42;;;;;;;5.65;3.67;;;14.40;51.10;;;;;;1872692;77;21031;-51
2022/03/30 07:05:12;;;;;;;6.83;4.45;;;14.50;50.70;;;;;;1872702;77;21093;-50
2022/03/30 07:10:31;;;;;;;6.00;4.62;;;14.50;50.80;;;;;;1872817;75;21059;-48
2022/03/30 07:13:03;;;;;;;4.92;4.12;;;14.60;50.90;;;;;;1872719;76;21034;-50
2022/03/30 07:15:33;;;;;;;10.70;4.55;;;14.60;50.70;;;;;;1872839;77;21027;-49
2022/03/30 07:18:02;;;;;;;10.68;4.53;;;14.70;50.70;;;;;;1872763;77;21027;-51
2022/03/30 07:20:32;;;;;;;9.33;5.12;;;14.70;50.80;;;;;;1872666;77;21031;-48
2022/03/30 07:23:01;;;;;;;10.65;4.58;;;14.80;50.90;;;;;;1872689;76;21031;-47
2022/03/30 07:25:31;;;;;;;10.88;4.45;;;14.80;50.60;;;;;;1872707;76;21047;-51
2022/03/30 07:28:03;;;;;;;15.25;5.87;;;14.80;50.40;;;;;;1872603;76;21043;-48
2022/03/30 07:30:32;;;;;;;15.05;5.10;;;14.90;50.50;;;;;;1872742;76;21543;-47
2022/03/30 07:33:02;;;;;;;12.70;8.08;;;14.90;50.50;;;;;;1872739;77;21035;-51
2022/03/30 07:35:36;;;;;;;9.70;7.35;;;15.00;50.40;;;;;;1872746;77;21101;-50
2022/03/30 07:38:03;;;;;;;7.78;5.00;;;15.10;50.50;;;;;;1872036;75;21089;-51
2022/03/30 07:40:33;;;;;;;9.73;4.90;;;15.10;50.10;;;;;;1872727;77;21124;-48
2022/03/30 07:43:02;;;;;;;9.15;5.08;;;15.20;49.50;;;;;;1872669;77;21071;-48
2022/03/30 07:45:33;;;;;;;15.18;5.47;;;15.20;49.20;;;;;;1882576;75;21124;-48
2022/03/30 07:48:02;;;;;;;12.13;6.10;;;15.30;49.10;;;;;;1891299;75;21076;-51
2022/03/30 07:50:31;;;;;;;10.63;5.60;;;15.30;49.40;;;;;;1891297;76;21030;-51
2022/03/30 07:53:01;;;;;;;10.48;4.97;;;15.30;49.10;;;;;;1891226;75;21084;-49
2022/03/30 07:55:31;;;;;;;7.65;4.62;;;15.40;48.90;;;;;;1891301;76;21085;-50
2022/03/30 07:58:00;;;;;;;7.40;4.62;;;15.50;49.00;;;;;;1891320;76;21042;-51
2022/03/30 08:00:30;;;;;;;6.47;5.00;;;15.50;49.00;;;;;;1891405;76;21015;-47
2022/03/30 08:23:13;;;;;;;11.03;4.85;;;16.80;47.00;;;;;;1949244;73;21090;-56
2022/03/30 08:25:43;;;;;;;9.88;5.70;;;16.80;47.00;;;;;;1949131;73;21116;-55
2022/03/30 08:28:12;;;;;;;10.18;5.55;;;16.80;46.80;;;;;;1949255;73;21019;-56
2022/03/30 08:30:42;;;;;;;8.38;4.45;;;16.80;46.80;;;;;;1949139;73;20999;-56
2022/03/30 08:33:26;;;;;;;7.60;4.78;;;16.80;46.50;;;;;;1949151;73;21092;-56
2022/03/30 08:36:07;;;;;;;10.10;5.62;;;16.80;46.60;;;;;;1948286;73;21059;-56
2022/03/30 08:38:50;;;;;;;11.75;5.70;;;16.80;46.40;;;;;;1946646;73;21251;-55
2022/03/30 08:41:32;;;;;;;15.53;6.42;;;16.70;46.20;;;;;;1914752;75;21043;-55
2022/03/30 08:44:16;;;;;;;18.20;6.25;;;16.70;46.20;;;;;;1923239;73;21540;-55
2022/03/30 08:46:47;;;;;;;12.03;5.95;;;16.70;46.40;;;;;;1919459;73;21098;-55
2022/03/30 08:49:18;;;;;;;8.33;5.75;;;16.70;46.50;;;;;;1920468;73;21030;-55
2022/03/30 08:51:49;;;;;;;9.85;5.33;;;16.80;45.90;;;;;;1920469;73;21040;-55
2022/03/30 08:54:20;;;;;;;9.90;5.50;;;16.80;45.90;;;;;;1921431;73;21035;-55
2022/03/30 08:56:49;;;;;;;13.80;5.35;;;16.90;45.90;;;;;;1917929;73;21015;-54
2022/03/30 08:59:23;;;;;;;9.90;5.55;;;16.90;45.60;;;;;;1915161;73;21086;-55
2022/03/30 09:01:54;;;;;;;12.00;5.65;;;17.00;45.60;;;;;;1921799;73;20987;-56
2022/03/30 09:04:25;;;;;;;14.80;5.67;;;17.00;44.60;;;;;;1915710;75;21102;-55
2022/03/30 09:06:57;;;;;;;13.78;4.80;;;17.00;44.20;;;;;;1915309;75;21457;-56
2022/03/30 09:09:41;;;;;;;9.88;5.70;;;17.00;44.10;;;;;;1915189;75;21102;-56
2022/03/30 09:12:10;;;;;;;10.23;5.28;;;17.00;44.10;;;;;;1888172;74;21147;-56
2022/03/30 09:14:42;;;;;;;6.95;4.80;;;17.00;44.00;;;;;;1920038;73;21504;-55
2022/03/30 09:17:11;;;;;;;19.55;6.90;;;17.00;43.70;;;;;;1922513;73;21486;-55
2022/03/30 09:19:41;;;;;;;10.35;5.15;;;17.00;44.00;;;;;;1920528;73;21031;-55
2022/03/30 09:22:11;;;;;;;11.97;5.30;;;17.00;43.90;;;;;;1915714;73;21108;-55
2022/03/30 09:24:41;;;;;;;14.25;5.50;;;16.90;44.00;;;;;;1915327;75;21108;-56
2022/03/30 09:27:11;;;;;;;9.58;6.25;;;16.90;44.20;;;;;;1915002;75;21046;-55
2022/03/30 09:29:41;;;;;;;12.45;6.05;;;16.90;43.80;;;;;;1915166;75;21026;-55
2022/03/30 09:32:10;;;;;;;9.03;5.50;;;16.80;43.90;;;;;;1914744;75;21030;-56
2022/03/30 09:34:48;;;;;;;12.93;6.03;;;16.80;44.20;;;;;;1914637;75;21100;-55
2022/03/30 09:37:17;;;;;;;10.20;5.87;;;16.80;43.80;;;;;;1914568;75;21108;-55
2022/03/30 09:39:49;;;;;;;6.30;5.37;;;16.70;44.10;;;;;;1914604;75;21457;-56
2022/03/30 09:42:18;;;;;;;8.80;5.37;;;16.70;44.20;;;;;;1914793;75;21782;-55
2022/03/30 09:44:53;;;;;;;19.92;5.62;;;16.70;44.40;;;;;;1915047;75;21080;-55
2022/03/30 09:47:24;;;;;;;7.80;5.28;;;16.70;44.50;;;;;;1919748;74;21068;-56
2022/03/30 09:49:55;;;;;;;11.10;6.00;;;16.70;44.40;;;;;;1919592;73;21003;-55
2022/03/30 09:52:27;;;;;;;10.60;6.25;;;16.70;44.20;;;;;;1923839;74;20996;-55
2022/03/30 09:54:58;;;;;;;16.32;6.55;;;16.70;44.00;;;;;;1918805;74;21040;-55
2022/03/30 09:57:39;;;;;;;13.05;6.20;;;16.70;44.00;;;;;;1915184;75;21020;-56
2022/03/30 10:00:12;;;;;;;9.20;4.42;;;16.70;44.20;;;;;;1919402;74;21102;-56
2022/03/30 10:02:44;;;;;;;7.50;5.87;;;16.70;43.80;;;;;;1915449;75;21026;-56
2022/03/30 10:05:18;;;;;;;12.47;5.60;;;16.70;44.30;;;;;;1921956;74;21028;-55
2022/03/30 10:07:48;;;;;;;11.03;5.93;;;16.60;44.30;;;;;;1917509;75;21023;-55
2022/03/30 10:10:24;;;;;;;8.55;5.87;;;16.60;44.30;;;;;;1917450;75;21148;-55
2022/03/30 10:12:50;;;;;;;15.35;7.00;;;16.50;44.50;;;;;;1916306;74;21062;-56
2022/03/30 10:15:20;;;;;;;7.67;5.30;;;16.50;44.80;;;;;;1917530;74;21038;-55
2022/03/30 10:17:49;;;;;;;12.37;6.00;;;16.50;44.70;;;;;;1917627;75;21027;-55
2022/03/30 10:20:21;;;;;;;10.53;5.33;;;16.40;44.90;;;;;;1917743;74;21102;-56
2022/03/30 10:23:18;;;;;;;7.70;5.08;;;16.40;45.00;;;;;;1917663;75;21101;-55
2022/03/30 10:26:07;;;;;;;13.45;6.67;;;16.40;45.00;;;;;;1917659;75;21104;-56
2022/03/30 10:28:50;;;;;;;9.65;5.80;;;16.40;45.20;;;;;;1917374;74;21464;-56
2022/03/30 10:31:26;;;;;;;11.55;5.37;;;16.40;45.40;;;;;;1917129;73;21043;-55
2022/03/30 10:33:54;;;;;;;;;;;16.50;45.60;;;;;;1920539;73;21096;-55
2022/03/30 10:36:32;;;;;;;8.28;5.60;;;16.60;45.10;;;;;;1917646;74;20097;-58
2022/03/30 10:39:14;;;;;;;11.00;5.50;;;16.60;45.50;;;;;;1917721;75;21023;-55
2022/03/30 10:41:58;;;;;;;9.55;5.95;;;16.70;45.60;;;;;;1917681;75;21027;-56
2022/03/30 10:44:57;;;;;;;12.55;5.62;;;16.70;45.50;;;;;;1916844;74;21105;-56
2022/03/30 10:47:27;;;;;;;9.85;5.70;;;16.80;45.50;;;;;;1917441;74;21043;-56
2022/03/30 10:50:00;;;;;;;8.98;6.03;;;16.80;45.80;;;;;;1917680;74;21027;-56
2022/03/30 10:52:41;;;;;;;15.25;6.60;;;16.80;45.90;;;;;;1917678;75;21094;-55
2022/03/30 10:55:19;;;;;;;15.78;5.87;;;16.80;46.00;;;;;;1917954;73;21031;-56
2022/03/30 10:57:50;;;;;;;10.82;6.45;;;16.80;46.10;;;;;;1917611;75;21507;-56
2022/03/30 11:00:36;;;;;;;9.18;5.55;;;16.80;46.80;;;;;;1917670;73;21007;-56
2022/03/30 11:03:17;;;;;;;13.40;5.92;;;16.80;46.50;;;;;;1917679;75;21054;-55
2022/03/30 11:06:00;;;;;;;12.37;6.03;;;16.70;47.20;;;;;;1917740;75;21022;-56
2022/03/30 11:08:38;;;;;;;7.28;5.22;;;16.70;47.00;;;;;;1917777;75;21011;-55
2022/03/30 11:11:30;;;;;;;11.57;5.30;;;16.70;46.80;;;;;;1917747;73;20987;-56
2022/03/30 11:14:24;;;;;;;8.88;5.42;;;16.70;46.70;;;;;;1917632;75;21037;-56
2022/03/30 11:16:56;;;;;;;12.43;4.87;;;16.60;46.50;;;;;;1917689;73;21066;-56
2022/03/30 11:19:31;;;;;;;10.05;4.45;;;16.60;46.90;;;;;;1917503;75;21031;-56
2022/03/30 11:22:12;;;;;;;9.45;5.40;;;16.60;46.70;;;;;;1930027;74;21062;-56
2022/03/30 11:24:43;;;;;;;16.82;6.03;;;16.70;46.70;;;;;;1931189;74;21498;-55
2022/03/30 11:27:17;;;;;;;12.50;6.08;;;16.80;46.60;;;;;;1930995;74;21095;-56
2022/03/30 11:29:53;;;;;;;9.33;6.58;;;16.90;46.60;;;;;;1931187;74;21010;-56
2022/03/30 11:32:34;;;;;;;8.35;4.70;;;17.00;46.10;;;;;;1930998;74;21561;-56
2022/03/30 11:35:05;;;;;;;10.05;4.92;;;17.10;46.00;;;;;;1931090;74;21520;-56
2022/03/30 11:37:37;;;;;;;13.18;4.37;;;17.20;45.50;;;;;;1929927;74;21093;-48
2022/03/30 11:40:09;;;;;;;10.90;5.20;;;17.20;45.40;;;;;;1929236;74;21038;-50
2022/03/30 11:42:44;;;;;;;9.93;4.28;;;17.30;45.20;;;;;;1930393;74;21015;-52
2022/03/30 11:45:21;;;;;;;10.60;5.65;;;17.30;45.20;;;;;;1930497;74;21018;-48
2022/03/30 11:47:59;;;;;;;9.83;4.30;;;17.30;45.50;;;;;;1930446;74;21074;-50
2022/03/30 11:50:34;;;;;;;6.70;4.08;;;17.40;45.50;;;;;;1930502;74;21151;-52
2022/03/30 11:53:09;;;;;;;13.53;5.37;;;17.40;44.90;;;;;;1930657;73;21069;-49
2022/03/30 11:55:56;;;;;;;9.73;4.90;;;17.40;45.10;;;;;;1930640;74;21065;-48
2022/03/30 11:58:34;;;;;;;11.10;5.42;;;17.40;45.30;;;;;;1930467;74;21163;-52
2022/03/30 12:01:08;;;;;;;19.95;5.47;;;17.40;45.30;;;;;;1930269;74;21014;-50
2022/03/30 12:03:40;;;;;;;8.97;4.57;;;17.40;45.30;;;;;;1933023;73;21095;-49
2022/03/30 12:06:10;;;;;;;9.68;5.17;;;17.40;45.40;;;;;;1964837;73;21069;-48
2022/03/30 12:08:45;;;;;;;12.00;6.10;;;17.40;45.50;;;;;;1964772;73;21030;-50
2022/03/30 12:11:15;;;;;;;8.25;4.92;;;17.40;45.50;;;;;;1964996;73;21065;-49
2022/03/30 12:13:45;;;;;;;6.58;5.15;;;17.30;45.70;;;;;;1964748;73;20998;-49
2022/03/30 12:16:16;;;;;;;10.72;5.62;;;17.30;45.90;;;;;;1964763;73;21065;-49
2022/03/30 12:18:51;;;;;;;10.95;4.75;;;17.30;46.20;;;;;;1964814;73;21135;-46
2022/03/30 12:21:24;;;;;;;11.45;5.33;;;17.30;46.40;;;;;;1962139;73;21102;-49
2022/03/30 12:24:06;;;;;;;9.05;5.15;;;17.30;47.10;;;;;;1957788;73;21030;-46
2022/03/30 12:26:35;;;;;;;10.55;5.12;;;17.40;46.60;;;;;;1957993;73;21066;-47
2022/03/30 12:29:09;;;;;;;10.82;5.40;;;17.40;46.70;;;;;;1957810;73;21108;-47
2022/03/30 12:31:45;;;;;;;12.70;5.83;;;17.40;46.80;;;;;;1958233;73;21088;-47
2022/03/30 12:34:17;;;;;;;13.48;5.75;;;17.40;46.80;;;;;;1956368;73;21042;-48
2022/03/30 12:36:53;;;;;;;9.13;5.22;;;17.40;47.00;;;;;;1957726;73;21038;-47
2022/03/30 12:39:27;;;;;;;8.78;4.90;;;17.50;47.00;;;;;;1957183;73;21026;-46
2022/03/30 12:41:58;;;;;;;10.48;5.53;;;17.40;46.90;;;;;;1957721;73;21066;-46
2022/03/30 12:44:48;;;;;;;7.10;5.55;;;17.40;47.10;;;;;;1957928;73;22107;-47
2022/03/30 12:47:32;;;;;;;11.65;5.12;;;17.40;47.20;;;;;;1957757;73;21010;-50
2022/03/30 12:50:07;;;;;;;9.95;4.78;;;17.40;47.50;;;;;;1957604;73;21018;-48
2022/03/30 12:52:38;;;;;;;9.38;5.05;;;17.40;47.30;;;;;;1957973;73;21448;-48
2022/03/30 12:55:24;;;;;;;9.38;4.55;;;17.40;47.30;;;;;;1957420;73;21014;-47
2022/03/30 12:57:56;;;;;;;13.98;5.58;;;17.40;47.40;;;;;;1957697;73;21100;-47
2022/03/30 13:00:31;;;;;;;8.70;5.00;;;17.40;47.60;;;;;;1957691;73;21458;-47
2022/03/30 13:03:13;;;;;;;;;;;17.40;47.70;;;;;;1934215;73;21115;-45
2022/03/30 13:05:50;;;;;;;14.58;5.62;;;17.40;47.70;;;;;;1957813;73;20348;-46
2022/03/30 13:08:21;;;;;;;10.95;5.30;;;17.40;47.80;;;;;;1954102;73;21098;-51
2022/03/30 13:10:57;;;;;;;8.28;4.72;;;17.40;47.80;;;;;;1957426;73;20998;-46
2022/03/30 13:13:29;;;;;;;14.23;6.37;;;17.40;47.80;;;;;;1957937;73;21025;-51
2022/03/30 13:16:13;;;;;;;11.10;5.10;;;17.50;48.10;;;;;;1957780;73;21018;-52
2022/03/30 13:18:43;;;;;;;8.05;4.97;;;17.40;48.10;;;;;;1958058;73;21520;-50
2022/03/30 13:21:15;;;;;;;7.22;4.72;;;17.40;48.20;;;;;;1956804;73;21027;-46
2022/03/30 13:23:50;;;;;;;10.03;5.45;;;17.40;48.10;;;;;;1947617;74;21011;-47
2022/03/30 13:26:40;;;;;;;12.98;5.70;;;17.40;48.30;;;;;;1947864;74;21069;-48
2022/03/30 13:29:09;;;;;;;8.00;4.75;;;17.30;48.40;;;;;;1947622;74;21093;-47
2022/03/30 13:31:46;;;;;;;8.70;5.58;;;17.30;48.30;;;;;;1947681;74;21151;-48
2022/03/30 13:34:18;;;;;;;10.35;5.10;;;17.30;48.30;;;;;;1947839;74;21061;-47